createdAt,value
2018-07-14T00:01:44.189Z,16.61
2018-07-14T00:04:12.284Z,16.59
2018-07-14T00:06:40.368Z,16.54
2018-07-14T00:09:08.444Z,16.53
2018-07-14T00:11:36.528Z,16.50
2018-07-14T00:14:04.616Z,16.46
2018-07-14T00:16:32.713Z,16.45
2018-07-14T00:19:00.857Z,16.42
2018-07-14T00:21:29.048Z,16.36
2018-07-14T00:23:57.197Z,16.34
2018-07-14T00:26:25.323Z,16.32
2018-07-14T00:28:53.642Z,16.26
2018-07-14T00:31:21.957Z,16.22
2018-07-14T00:33:50.204Z,16.22
2018-07-14T00:36:18.411Z,16.21
2018-07-14T00:38:46.612Z,16.16
2018-07-14T00:41:14.767Z,16.14
2018-07-14T00:43:42.854Z,16.10
2018-07-14T00:46:11.020Z,16.05
2018-07-14T00:48:39.064Z,16.01
2018-07-14T00:51:07.149Z,15.99
2018-07-14T00:53:35.241Z,16.00
2018-07-14T00:56:03.330Z,15.97
2018-07-14T00:58:31.497Z,15.95
2018-07-14T01:00:59.566Z,15.93
2018-07-14T01:03:27.624Z,15.91
2018-07-14T01:05:55.778Z,15.88
2018-07-14T01:08:23.810Z,15.84
2018-07-14T01:10:51.884Z,15.79
2018-07-14T01:13:19.951Z,15.77
2018-07-14T01:15:48.389Z,15.75
2018-07-14T01:18:16.480Z,15.71
2018-07-14T01:20:44.514Z,15.69
2018-07-14T01:23:12.584Z,15.66
2018-07-14T01:25:40.676Z,15.63
2018-07-14T01:28:08.751Z,15.62
2018-07-14T01:30:36.835Z,15.58
2018-07-14T01:33:04.986Z,15.57
2018-07-14T01:35:33.035Z,15.53
2018-07-14T01:38:01.106Z,15.47
2018-07-14T01:40:29.188Z,15.47
2018-07-14T01:42:57.940Z,15.45
2018-07-14T01:45:26.255Z,15.42
2018-07-14T01:47:54.339Z,15.40
2018-07-14T01:50:22.387Z,15.36
2018-07-14T01:52:50.459Z,15.36
2018-07-14T01:55:18.538Z,15.36
2018-07-14T01:57:46.627Z,15.34
2018-07-14T02:00:14.687Z,15.32
2018-07-14T02:02:42.742Z,15.30
2018-07-14T02:05:10.827Z,15.29
2018-07-14T02:07:38.883Z,15.28
2018-07-14T02:10:07.169Z,15.27
2018-07-14T02:12:35.251Z,15.24
2018-07-14T02:15:03.367Z,15.21
2018-07-14T02:17:31.427Z,15.20
2018-07-14T02:19:59.583Z,15.18
2018-07-14T02:22:27.680Z,15.16
2018-07-14T02:24:55.878Z,15.15
2018-07-14T02:27:24.168Z,15.13
2018-07-14T02:29:52.415Z,15.11
2018-07-14T02:32:20.892Z,15.09
2018-07-14T02:34:49.041Z,15.08
2018-07-14T02:37:17.232Z,15.11
2018-07-14T02:39:45.366Z,15.11
2018-07-14T02:42:13.534Z,15.08
2018-07-14T02:44:41.633Z,15.05
2018-07-14T02:47:09.728Z,15.02
2018-07-14T02:49:37.784Z,15.02
2018-07-14T02:52:06.859Z,14.99
2018-07-14T02:54:34.916Z,14.98
2018-07-14T02:57:03.437Z,14.97
2018-07-14T02:59:31.514Z,14.96
2018-07-14T03:01:59.650Z,14.94
2018-07-14T03:04:27.805Z,14.92
2018-07-14T03:06:56.019Z,14.88
2018-07-14T03:09:24.300Z,14.88
2018-07-14T03:11:52.539Z,14.87
2018-07-14T03:14:21.131Z,14.86
2018-07-14T03:16:49.311Z,14.87
2018-07-14T03:19:17.462Z,14.87
2018-07-14T03:21:45.552Z,14.87
2018-07-14T03:24:13.691Z,14.77
2018-07-14T03:26:41.755Z,14.88
2018-07-14T03:29:09.831Z,14.86
2018-07-14T03:31:37.896Z,14.85
2018-07-14T03:34:06.129Z,14.83
2018-07-14T03:36:34.228Z,14.83
2018-07-14T03:39:02.288Z,14.85
2018-07-14T03:41:30.494Z,14.88
2018-07-14T03:43:58.639Z,14.87
2018-07-14T03:46:26.761Z,14.86
2018-07-14T03:48:54.931Z,14.88
2018-07-14T03:51:22.975Z,14.92
2018-07-14T03:53:51.035Z,14.94
2018-07-14T03:56:19.135Z,14.99
2018-07-14T03:58:47.175Z,15.02
2018-07-14T04:01:15.299Z,15.01
2018-07-14T04:03:43.356Z,15.03
2018-07-14T04:06:11.583Z,15.06
2018-07-14T04:08:39.643Z,15.08
2018-07-14T04:11:07.896Z,15.15
2018-07-14T04:13:36.194Z,15.21
2018-07-14T04:16:04.367Z,15.29
2018-07-14T04:18:32.570Z,15.39
2018-07-14T04:21:00.637Z,15.40
2018-07-14T04:23:28.695Z,15.46
2018-07-14T04:25:56.857Z,15.51
2018-07-14T04:28:25.119Z,15.51
2018-07-14T04:30:53.348Z,15.52
2018-07-14T04:33:21.518Z,15.51
2018-07-14T04:35:49.686Z,15.52
2018-07-14T04:38:17.875Z,15.62
2018-07-14T04:40:45.979Z,15.87
2018-07-14T04:43:14.718Z,16.17
2018-07-14T04:45:42.780Z,16.30
2018-07-14T04:48:11.431Z,16.50
2018-07-14T04:50:39.496Z,16.65
2018-07-14T04:53:07.610Z,16.74
2018-07-14T04:55:35.679Z,16.93
2018-07-14T04:58:03.779Z,17.60
2018-07-14T05:00:31.826Z,17.77
2018-07-14T05:02:59.886Z,17.77
2018-07-14T05:05:27.975Z,18.26
2018-07-14T05:07:56.056Z,19.01
2018-07-14T05:10:24.179Z,19.66
2018-07-14T05:12:52.234Z,20.27
2018-07-14T05:15:20.413Z,20.71
2018-07-14T05:17:48.491Z,21.20
2018-07-14T05:20:16.555Z,21.78
2018-07-14T05:22:44.607Z,22.38
2018-07-14T05:25:12.693Z,22.77
2018-07-14T05:27:40.776Z,23.13
2018-07-14T05:30:08.818Z,22.84
2018-07-14T05:32:36.871Z,22.33
2018-07-14T05:35:05.296Z,21.79
2018-07-14T05:37:33.352Z,21.27
2018-07-14T05:40:01.412Z,21.18
2018-07-14T05:42:29.694Z,21.84
2018-07-14T05:44:57.802Z,22.27
2018-07-14T05:47:25.874Z,22.74
2018-07-14T05:49:53.948Z,23.17
2018-07-14T05:52:22.466Z,23.49
2018-07-14T05:54:50.507Z,23.77
2018-07-14T05:57:18.563Z,24.03
2018-07-14T05:59:46.740Z,24.20
2018-07-14T06:02:14.815Z,24.39
2018-07-14T06:04:42.867Z,24.53
2018-07-14T06:07:10.932Z,24.90
2018-07-14T06:09:39.050Z,25.16
2018-07-14T06:12:07.100Z,25.47
2018-07-14T06:14:35.147Z,25.54
2018-07-14T06:17:03.197Z,25.57
2018-07-14T06:19:31.266Z,25.72
2018-07-14T06:21:59.303Z,25.83
2018-07-14T06:24:27.491Z,25.92
2018-07-14T06:26:55.539Z,26.05
2018-07-14T06:29:24.380Z,26.04
2018-07-14T06:31:52.514Z,26.16
2018-07-14T06:34:20.550Z,26.24
2018-07-14T06:36:48.643Z,26.58
2018-07-14T06:39:16.765Z,26.76
2018-07-14T06:41:44.832Z,27.19
2018-07-14T06:44:12.935Z,27.66
2018-07-14T06:46:40.974Z,27.72
2018-07-14T06:49:09.116Z,28.01
2018-07-14T06:51:37.216Z,28.08
2018-07-14T06:54:05.263Z,28.42
2018-07-14T06:56:33.375Z,28.29
2018-07-14T06:59:01.452Z,28.28
2018-07-14T07:01:29.760Z,28.13
2018-07-14T07:03:57.991Z,28.42
2018-07-14T07:06:26.139Z,28.28
2018-07-14T07:08:54.203Z,28.16
2018-07-14T07:11:22.247Z,28.22
2018-07-14T07:13:50.756Z,28.30
2018-07-14T07:16:18.743Z,28.16
2018-07-14T07:18:46.782Z,27.84
2018-07-14T07:21:15.006Z,27.93
2018-07-14T07:23:43.303Z,27.93
2018-07-14T07:26:11.350Z,28.29
2018-07-14T07:28:39.453Z,28.31
2018-07-14T07:31:07.520Z,28.52
2018-07-14T07:33:35.624Z,28.46
2018-07-14T07:36:03.676Z,28.41
2018-07-14T07:38:31.760Z,28.85
2018-07-14T07:40:59.824Z,28.89
2018-07-14T07:43:27.863Z,28.34
2018-07-14T07:45:55.945Z,28.91
2018-07-14T07:48:24.125Z,28.87
2018-07-14T07:50:52.173Z,29.13
2018-07-14T07:53:20.236Z,29.13
2018-07-14T07:55:48.357Z,28.59
2018-07-14T07:58:16.529Z,28.45
2018-07-14T08:00:44.605Z,28.52
2018-07-14T08:03:12.656Z,28.41
2018-07-14T08:05:40.763Z,28.46
2018-07-14T08:08:08.856Z,28.73
2018-07-14T08:10:36.936Z,28.86
2018-07-14T08:13:05.072Z,28.31
2018-07-14T08:15:33.159Z,27.89
2018-07-14T08:18:01.583Z,28.13
2018-07-14T08:20:29.653Z,27.92
2018-07-14T08:22:57.902Z,27.53
2018-07-14T08:25:25.819Z,27.53
2018-07-14T08:27:53.892Z,26.55
2018-07-14T08:30:21.947Z,25.82
2018-07-14T08:32:50.028Z,26.59
2018-07-14T08:35:18.088Z,26.51
2018-07-14T08:37:46.144Z,26.97
2018-07-14T08:40:14.203Z,27.30
2018-07-14T08:42:42.261Z,27.38
2018-07-14T08:45:10.368Z,27.41
2018-07-14T08:47:38.407Z,26.76
2018-07-14T08:50:06.599Z,26.83
2018-07-14T08:52:34.644Z,27.02
2018-07-14T08:55:02.936Z,26.86
2018-07-14T08:57:31.012Z,26.93
2018-07-14T08:59:59.062Z,26.82
2018-07-14T09:02:27.116Z,26.72
2018-07-14T09:04:55.170Z,26.55
2018-07-14T09:07:23.263Z,26.03
2018-07-14T09:09:51.291Z,26.28
2018-07-14T09:12:19.385Z,25.90
2018-07-14T09:14:47.449Z,26.13
2018-07-14T09:17:15.480Z,26.50
2018-07-14T09:19:43.763Z,26.45
2018-07-14T09:22:11.828Z,26.72
2018-07-14T09:24:39.904Z,26.72
2018-07-14T09:27:07.979Z,26.91
2018-07-14T09:29:36.387Z,27.23
2018-07-14T09:32:04.427Z,27.21
2018-07-14T09:34:32.609Z,27.46
2018-07-14T09:37:01.111Z,27.41
2018-07-14T09:39:29.171Z,26.93
2018-07-14T09:41:57.264Z,27.29
2018-07-14T09:44:25.500Z,27.84
2018-07-14T09:46:53.540Z,27.83
2018-07-14T09:49:21.844Z,28.04
2018-07-14T09:51:49.915Z,27.99
2018-07-14T09:54:18.032Z,28.35
2018-07-14T09:56:46.051Z,28.33
2018-07-14T09:59:14.295Z,28.46
2018-07-14T10:01:42.351Z,28.74
2018-07-14T10:04:10.420Z,28.33
2018-07-14T10:06:38.488Z,28.53
2018-07-14T10:09:06.966Z,28.76
2018-07-14T10:11:35.255Z,28.94
2018-07-14T10:14:03.410Z,28.49
2018-07-14T10:16:31.640Z,27.27
2018-07-14T10:18:59.821Z,26.43
2018-07-14T10:21:27.964Z,26.14
2018-07-14T10:23:56.141Z,25.84
2018-07-14T10:26:24.420Z,25.86
2018-07-14T10:28:52.979Z,25.30
2018-07-14T10:31:21.127Z,24.69
2018-07-14T10:33:49.648Z,24.76
2018-07-14T10:36:18.139Z,24.77
2018-07-14T10:38:46.288Z,24.86
2018-07-14T10:41:14.295Z,24.44
2018-07-14T10:43:42.412Z,24.55
2018-07-14T10:46:10.504Z,24.20
2018-07-14T10:48:38.684Z,23.99
2018-07-14T10:51:06.748Z,23.86
2018-07-14T10:53:34.956Z,24.00
2018-07-14T10:56:03.039Z,24.14
2018-07-14T10:58:31.136Z,23.84
2018-07-14T11:00:59.296Z,24.14
2018-07-14T11:03:27.432Z,24.27
2018-07-14T11:05:55.739Z,24.38
2018-07-14T11:08:24.481Z,24.50
2018-07-14T11:10:53.116Z,24.55
2018-07-14T11:13:21.342Z,24.45
2018-07-14T11:15:49.647Z,24.56
2018-07-14T11:18:19.274Z,24.65
2018-07-14T11:20:47.542Z,24.73
2018-07-14T11:23:15.880Z,24.77
2018-07-14T11:25:44.014Z,24.79
2018-07-14T11:28:12.273Z,24.68
2018-07-14T11:30:40.467Z,24.27
2018-07-14T11:33:08.644Z,24.20
2018-07-14T11:35:36.895Z,24.17
2018-07-14T11:38:05.002Z,23.94
2018-07-14T11:40:33.212Z,24.03
2018-07-14T11:43:01.815Z,24.35
2018-07-14T11:45:30.125Z,24.44
2018-07-14T11:47:59.405Z,24.62
2018-07-14T11:50:27.859Z,24.52
2018-07-14T11:52:56.111Z,24.44
2018-07-14T11:55:24.577Z,24.55
2018-07-14T11:57:53.651Z,24.55
2018-07-14T12:00:22.298Z,24.82
2018-07-14T12:02:50.611Z,24.95
2018-07-14T12:05:19.365Z,25.20
2018-07-14T12:07:48.159Z,25.37
2018-07-14T12:10:16.279Z,25.19
2018-07-14T12:12:44.373Z,25.10
2018-07-14T12:15:12.436Z,25.18
2018-07-14T12:17:40.507Z,25.31
2018-07-14T12:20:16.741Z,24.98
2018-07-14T12:22:44.973Z,25.00
2018-07-14T12:25:13.068Z,25.18
2018-07-14T12:27:42.139Z,25.17
2018-07-14T12:30:10.299Z,24.91
2018-07-14T12:32:39.095Z,24.80
2018-07-14T12:35:07.562Z,24.74
2018-07-14T12:37:35.879Z,24.88
2018-07-14T12:40:04.131Z,25.12
2018-07-14T12:42:32.337Z,25.04
2018-07-14T12:45:00.766Z,24.82
2018-07-14T12:47:29.343Z,24.80
2018-07-14T12:49:57.996Z,24.91
2018-07-14T12:52:26.592Z,25.11
2018-07-14T12:54:55.184Z,25.08
2018-07-14T12:57:23.802Z,25.35
2018-07-14T12:59:53.348Z,25.43
2018-07-14T13:02:22.275Z,25.54
2018-07-14T13:04:50.491Z,25.30
2018-07-14T13:07:18.740Z,25.47
2018-07-14T13:09:46.808Z,25.66
2018-07-14T13:12:14.859Z,25.60
2018-07-14T13:14:42.973Z,25.58
2018-07-14T13:17:11.071Z,25.53
2018-07-14T13:19:39.172Z,25.39
2018-07-14T13:22:07.260Z,25.54
2018-07-14T13:24:35.321Z,25.24
2018-07-14T13:27:03.781Z,25.45
2018-07-14T13:29:32.089Z,25.50
2018-07-14T13:32:00.472Z,25.53
2018-07-14T13:34:28.966Z,25.58
2018-07-14T13:36:57.487Z,25.64
2018-07-14T13:39:26.215Z,25.80
2018-07-14T13:41:54.957Z,25.68
2018-07-14T13:44:23.667Z,25.51
2018-07-14T13:46:53.113Z,25.36
2018-07-14T13:49:22.091Z,25.61
2018-07-14T13:51:50.360Z,25.84
2018-07-14T13:54:18.560Z,25.72
2018-07-14T13:56:47.759Z,25.41
2018-07-14T13:59:16.142Z,25.31
2018-07-14T14:01:44.206Z,25.41
2018-07-14T14:04:12.270Z,25.46
2018-07-14T14:06:40.355Z,25.54
2018-07-14T14:09:08.776Z,25.39
2018-07-14T14:11:37.063Z,25.18
2018-07-14T14:14:05.332Z,25.19
2018-07-14T14:16:33.509Z,25.21
2018-07-14T14:19:01.725Z,25.32
2018-07-14T14:21:29.791Z,25.35
2018-07-14T14:24:01.393Z,25.42
2018-07-14T14:26:29.769Z,25.54
2018-07-14T14:28:59.943Z,25.68
2018-07-14T14:31:28.271Z,25.55
2018-07-14T14:33:56.337Z,25.57
2018-07-14T14:36:24.368Z,25.61
2018-07-14T14:38:52.421Z,25.58
2018-07-14T14:41:20.692Z,25.58
2018-07-14T14:43:48.929Z,25.30
2018-07-14T14:46:17.051Z,25.27
2018-07-14T14:48:45.089Z,25.20
2018-07-14T14:51:13.494Z,25.31
2018-07-14T14:53:41.588Z,25.41
2018-07-14T14:56:09.823Z,25.27
2018-07-14T14:58:37.846Z,25.29
2018-07-14T15:01:05.971Z,25.12
2018-07-14T15:03:34.164Z,25.12
2018-07-14T15:06:03.113Z,24.98
2018-07-14T15:08:31.370Z,24.98
2018-07-14T15:10:59.565Z,25.07
2018-07-14T15:13:27.959Z,25.21
2018-07-14T15:15:56.409Z,25.24
2018-07-14T15:18:24.903Z,25.22
2018-07-14T15:20:53.817Z,25.07
2018-07-14T15:23:23.620Z,25.12
2018-07-14T15:25:52.005Z,24.96
2018-07-14T15:28:20.188Z,24.76
2018-07-14T15:30:48.274Z,24.88
2018-07-14T15:33:16.521Z,25.11
2018-07-14T15:35:44.396Z,25.19
2018-07-14T15:38:13.079Z,25.14
2018-07-14T15:40:41.524Z,25.13
2018-07-14T15:43:09.580Z,25.26
2018-07-14T15:45:37.626Z,25.32
2018-07-14T15:48:06.241Z,25.40
2018-07-14T15:50:35.178Z,25.46
2018-07-14T15:53:03.523Z,25.48
2018-07-14T15:55:32.196Z,25.47
2018-07-14T15:58:00.487Z,25.40
2018-07-14T16:00:28.654Z,25.45
2018-07-14T16:02:56.840Z,25.43
2018-07-14T16:05:24.957Z,25.40
2018-07-14T16:07:53.385Z,25.17
2018-07-14T16:10:21.688Z,25.22
2018-07-14T16:12:49.874Z,25.32
2018-07-14T16:15:17.925Z,25.42
2018-07-14T16:17:46.013Z,25.48
2018-07-14T16:20:14.059Z,25.48
2018-07-14T16:22:42.108Z,25.47
2018-07-14T16:25:10.185Z,25.34
2018-07-14T16:27:38.255Z,25.35
2018-07-14T16:30:07.152Z,25.39
2018-07-14T16:32:35.268Z,25.39
2018-07-14T16:35:03.307Z,25.27
2018-07-14T16:37:31.460Z,25.32
2018-07-14T16:39:59.786Z,25.24
2018-07-14T16:42:28.026Z,25.35
2018-07-14T16:44:56.445Z,25.49
2018-07-14T16:47:24.856Z,25.60
2018-07-14T16:49:53.931Z,25.62
2018-07-14T16:52:23.158Z,25.60
2018-07-14T16:54:51.480Z,25.67
2018-07-14T16:57:19.575Z,25.48
2018-07-14T16:59:47.647Z,25.36
2018-07-14T17:02:15.707Z,25.21
2018-07-14T17:04:43.781Z,25.27
2018-07-14T17:07:12.450Z,25.32
2018-07-14T17:09:40.524Z,25.31
2018-07-14T17:12:08.834Z,25.33
2018-07-14T17:14:36.963Z,25.43
2018-07-14T17:17:05.125Z,25.20
2018-07-14T17:19:33.543Z,25.37
2018-07-14T17:22:01.916Z,25.37
2018-07-14T17:24:30.193Z,25.17
2018-07-14T17:26:58.815Z,25.06
2018-07-14T17:29:27.495Z,24.98
2018-07-14T17:31:56.424Z,25.10
2018-07-14T17:34:25.414Z,25.10
2018-07-14T17:36:53.964Z,24.93
2018-07-14T17:39:22.831Z,25.01
2018-07-14T17:41:51.119Z,25.16
2018-07-14T17:44:19.448Z,25.11
2018-07-14T17:46:47.826Z,25.02
2018-07-14T17:49:16.145Z,24.95
2018-07-14T17:51:44.258Z,24.83
2018-07-14T17:54:12.821Z,24.89
2018-07-14T17:56:40.924Z,24.84
2018-07-14T17:59:09.073Z,24.88
2018-07-14T18:01:37.120Z,24.79
2018-07-14T18:04:05.291Z,24.79
2018-07-14T18:06:33.364Z,24.71
2018-07-14T18:09:01.418Z,24.57
2018-07-14T18:11:29.512Z,24.54
2018-07-14T18:13:57.588Z,24.48
2018-07-14T18:16:25.756Z,24.46
2018-07-14T18:18:53.827Z,24.35
2018-07-14T18:21:21.959Z,24.26
2018-07-14T18:23:50.008Z,24.23
2018-07-14T18:26:18.845Z,24.25
2018-07-14T18:28:47.216Z,24.20
2018-07-14T18:31:15.279Z,24.09
2018-07-14T18:33:43.443Z,23.95
2018-07-14T18:36:12.003Z,23.96
2018-07-14T18:38:40.006Z,23.76
2018-07-14T18:41:08.062Z,23.73
2018-07-14T18:43:36.283Z,23.63
2018-07-14T18:46:04.521Z,23.63
2018-07-14T18:48:32.739Z,23.59
2018-07-14T18:51:01.280Z,23.43
2018-07-14T18:53:29.424Z,23.35
2018-07-14T18:55:57.564Z,23.23
2018-07-14T18:58:25.736Z,23.18
2018-07-14T19:00:54.075Z,23.14
2018-07-14T19:03:22.774Z,23.01
2018-07-14T19:05:51.087Z,22.93
2018-07-14T19:08:19.195Z,22.77
2018-07-14T19:10:47.305Z,22.79
2018-07-14T19:13:15.456Z,22.71
2018-07-14T19:15:43.591Z,22.69
2018-07-14T19:18:11.660Z,22.58
2018-07-14T19:20:39.709Z,22.56
2018-07-14T19:23:07.788Z,22.43
2018-07-14T19:25:35.913Z,22.35
2018-07-14T19:28:04.097Z,22.27
2018-07-14T19:30:32.572Z,22.22
2018-07-14T19:33:00.794Z,22.14
2018-07-14T19:35:28.959Z,22.00
2018-07-14T19:37:57.226Z,21.94
2018-07-14T19:40:25.894Z,21.90
2018-07-14T19:42:54.002Z,21.78
2018-07-14T19:45:22.166Z,21.66
2018-07-14T19:47:50.319Z,21.61
2018-07-14T19:50:18.584Z,21.56
2018-07-14T19:52:46.863Z,21.45
2018-07-14T19:55:15.147Z,21.40
2018-07-14T19:57:43.207Z,21.35
2018-07-14T20:00:11.563Z,21.26
2018-07-14T20:02:39.906Z,21.17
2018-07-14T20:05:08.034Z,21.08
2018-07-14T20:07:36.276Z,21.01
2018-07-14T20:10:04.488Z,20.94
2018-07-14T20:12:32.842Z,20.89
2018-07-14T20:15:01.080Z,20.85
2018-07-14T20:17:29.173Z,20.73
2018-07-14T20:19:57.328Z,20.68
2018-07-14T20:22:25.928Z,20.58
2018-07-14T20:24:54.540Z,20.52
2018-07-14T20:27:22.906Z,20.45
2018-07-14T20:29:51.647Z,20.41
2018-07-14T20:32:19.912Z,20.35
2018-07-14T20:34:48.062Z,20.30
2018-07-14T20:37:16.422Z,20.28
2018-07-14T20:39:44.753Z,20.23
2018-07-14T20:42:12.811Z,20.18
2018-07-14T20:44:40.948Z,20.11
2018-07-14T20:47:09.024Z,20.06
2018-07-14T20:49:37.187Z,20.01
2018-07-14T20:52:05.411Z,19.96
2018-07-14T20:54:33.514Z,19.91
2018-07-14T20:57:01.644Z,19.89
2018-07-14T20:59:30.636Z,19.85
2018-07-14T21:01:58.663Z,19.83
2018-07-14T21:04:26.843Z,19.83
2018-07-14T21:06:55.147Z,19.81
2018-07-14T21:09:23.199Z,19.77
2018-07-14T21:11:51.256Z,19.73
2018-07-14T21:14:19.455Z,19.65
2018-07-14T21:16:47.501Z,19.60
2018-07-14T21:19:15.572Z,19.54
2018-07-14T21:21:43.739Z,19.48
2018-07-14T21:24:11.788Z,19.44
2018-07-14T21:26:39.835Z,19.39
2018-07-14T21:29:07.896Z,19.34
2018-07-14T21:31:35.939Z,19.29
2018-07-14T21:34:04.263Z,19.26
2018-07-14T21:36:32.496Z,19.22
2018-07-14T21:39:00.760Z,19.15
2018-07-14T21:41:28.931Z,19.12
2018-07-14T21:43:57.097Z,19.07
2018-07-14T21:46:25.283Z,19.04
2018-07-14T21:48:53.589Z,19.00
2018-07-14T21:51:21.663Z,18.96
2018-07-14T21:53:49.723Z,18.91
2018-07-14T21:56:17.908Z,18.86
2018-07-14T21:58:46.077Z,18.79
2018-07-14T22:01:19.563Z,18.76
2018-07-14T22:03:47.620Z,18.73
2018-07-14T22:06:15.670Z,18.72
2018-07-14T22:08:43.835Z,18.69
2018-07-14T22:11:11.967Z,18.64
2018-07-14T22:13:41.088Z,18.59
2018-07-14T22:16:13.574Z,18.56
2018-07-14T22:18:41.636Z,18.52
2018-07-14T22:21:09.708Z,18.49
2018-07-14T22:23:41.121Z,18.45
2018-07-14T22:26:09.208Z,18.38
2018-07-14T22:28:37.651Z,18.36
2018-07-14T22:31:05.864Z,18.35
2018-07-14T22:33:34.844Z,18.33
2018-07-14T22:36:03.246Z,18.28
2018-07-14T22:38:31.300Z,18.18
2018-07-14T22:40:59.357Z,18.15
2018-07-14T22:43:27.440Z,18.12
2018-07-14T22:45:55.513Z,18.09
2018-07-14T22:48:23.616Z,18.07
2018-07-14T22:50:51.852Z,18.05
2018-07-14T22:53:19.911Z,18.01
2018-07-14T22:55:51.788Z,17.96
2018-07-14T22:58:19.875Z,17.90
2018-07-14T23:00:47.959Z,17.83
2018-07-14T23:03:15.988Z,17.80
2018-07-14T23:05:44.069Z,17.77
2018-07-14T23:08:12.176Z,17.72
2018-07-14T23:10:40.286Z,17.68
2018-07-14T23:13:08.332Z,17.64
2018-07-14T23:15:36.865Z,17.61
2018-07-14T23:18:05.071Z,17.57
2018-07-14T23:20:33.139Z,17.52
2018-07-14T23:23:01.211Z,17.46
2018-07-14T23:25:29.285Z,17.44
2018-07-14T23:27:57.376Z,17.39
2018-07-14T23:30:25.491Z,17.37
2018-07-14T23:32:53.576Z,17.33
2018-07-14T23:35:21.675Z,17.28
2018-07-14T23:37:49.736Z,17.24
2018-07-14T23:40:17.819Z,17.21
2018-07-14T23:42:48.424Z,17.18
2018-07-14T23:45:16.496Z,17.17
2018-07-14T23:47:44.564Z,17.13
2018-07-14T23:50:12.738Z,17.07
2018-07-14T23:52:40.828Z,17.03
2018-07-14T23:55:08.899Z,16.99
2018-07-14T23:57:36.955Z,16.96
